sensor_id;sensor_type;location;lat;lon;timestamp;temperature;humidity
15698;DHT22;7949;48.726;9.102;2022-07-23T00:01:39;23.20;99.90
15698;DHT22;7949;48.726;9.102;2022-07-23T00:04:07;23.20;99.90
15698;DHT22;7949;48.726;9.102;2022-07-23T00:06:35;23.10;99.90
15698;DHT22;7949;48.726;9.102;2022-07-23T00:09:02;23.10;99.90
15698;DHT22;7949;48.726;9.102;2022-07-23T00:11:29;23.00;99.90
15698;DHT22;7949;48.726;9.102;2022-07-23T00:13:56;22.90;99.90
15698;DHT22;7949;48.726;9.102;2022-07-23T00:16:23;22.90;99.90
15698;DHT22;7949;48.726;9.102;2022-07-23T00:18:50;22.80;99.90
15698;DHT22;7949;48.726;9.102;2022-07-23T00:21:17;22.70;99.90
15698;DHT22;7949;48.726;9.102;2022-07-23T00:23:45;22.70;99.90
15698;DHT22;7949;48.726;9.102;2022-07-23T00:26:12;22.60;99.90
15698;DHT22;7949;48.726;9.102;2022-07-23T00:28:39;22.60;99.90
15698;DHT22;7949;48.726;9.102;2022-07-23T00:31:06;22.50;99.90
15698;DHT22;7949;48.726;9.102;2022-07-23T00:33:32;22.50;99.90
15698;DHT22;7949;48.726;9.102;2022-07-23T00:35:59;22.40;99.90
15698;DHT22;7949;48.726;9.102;2022-07-23T00:38:26;22.20;99.90
15698;DHT22;7949;48.726;9.102;2022-07-23T00:40:54;22.00;99.90
15698;DHT22;7949;48.726;9.102;2022-07-23T00:43:21;21.60;99.90
15698;DHT22;7949;48.726;9.102;2022-07-23T00:45:49;21.20;99.90
15698;DHT22;7949;48.726;9.102;2022-07-23T00:48:16;21.10;99.90
15698;DHT22;7949;48.726;9.102;2022-07-23T00:50:44;20.80;99.90
15698;DHT22;7949;48.726;9.102;2022-07-23T00:53:11;20.70;99.90
15698;DHT22;7949;48.726;9.102;2022-07-23T00:55:39;20.50;99.90
15698;DHT22;7949;48.726;9.102;2022-07-23T00:58:09;20.40;99.90
15698;DHT22;7949;48.726;9.102;2022-07-23T01:00:36;20.40;99.90
15698;DHT22;7949;48.726;9.102;2022-07-23T01:03:03;20.50;99.90
15698;DHT22;7949;48.726;9.102;2022-07-23T01:05:30;20.50;99.90
15698;DHT22;7949;48.726;9.102;2022-07-23T01:07:57;20.50;99.90
15698;DHT22;7949;48.726;9.102;2022-07-23T01:10:24;20.50;99.90
15698;DHT22;7949;48.726;9.102;2022-07-23T01:13:02;20.50;99.90
15698;DHT22;7949;48.726;9.102;2022-07-23T01:15:31;20.50;99.90
15698;DHT22;7949;48.726;9.102;2022-07-23T01:17:58;20.50;99.90
15698;DHT22;7949;48.726;9.102;2022-07-23T01:20:25;20.50;99.90
15698;DHT22;7949;48.726;9.102;2022-07-23T01:22:54;20.40;99.90
15698;DHT22;7949;48.726;9.102;2022-07-23T01:25:21;20.40;99.90
15698;DHT22;7949;48.726;9.102;2022-07-23T01:27:48;20.40;99.90
15698;DHT22;7949;48.726;9.102;2022-07-23T01:30:15;20.40;99.90
15698;DHT22;7949;48.726;9.102;2022-07-23T01:32:42;20.50;99.90
15698;DHT22;7949;48.726;9.102;2022-07-23T01:35:10;20.50;99.90
15698;DHT22;7949;48.726;9.102;2022-07-23T01:37:37;20.60;99.90
15698;DHT22;7949;48.726;9.102;2022-07-23T01:40:06;20.50;99.90
15698;DHT22;7949;48.726;9.102;2022-07-23T01:42:33;20.40;99.90
15698;DHT22;7949;48.726;9.102;2022-07-23T01:45:02;20.40;99.90
15698;DHT22;7949;48.726;9.102;2022-07-23T01:47:30;20.50;99.90
15698;DHT22;7949;48.726;9.102;2022-07-23T01:49:57;20.20;99.90
15698;DHT22;7949;48.726;9.102;2022-07-23T01:52:23;20.20;99.90
15698;DHT22;7949;48.726;9.102;2022-07-23T01:54:51;20.10;99.90
15698;DHT22;7949;48.726;9.102;2022-07-23T01:57:19;20.10;99.90
15698;DHT22;7949;48.726;9.102;2022-07-23T01:59:46;20.10;99.90
15698;DHT22;7949;48.726;9.102;2022-07-23T02:02:13;20.10;99.90
15698;DHT22;7949;48.726;9.102;2022-07-23T02:04:39;20.00;99.90
15698;DHT22;7949;48.726;9.102;2022-07-23T02:07:07;20.10;99.90
15698;DHT22;7949;48.726;9.102;2022-07-23T02:09:33;20.20;99.90
15698;DHT22;7949;48.726;9.102;2022-07-23T02:12:00;20.10;99.90
15698;DHT22;7949;48.726;9.102;2022-07-23T02:14:29;20.10;99.90
15698;DHT22;7949;48.726;9.102;2022-07-23T02:16:55;20.10;99.90
15698;DHT22;7949;48.726;9.102;2022-07-23T02:19:22;20.10;99.90
15698;DHT22;7949;48.726;9.102;2022-07-23T02:21:49;20.00;99.90
15698;DHT22;7949;48.726;9.102;2022-07-23T02:24:17;20.00;99.90
15698;DHT22;7949;48.726;9.102;2022-07-23T02:26:43;19.90;99.90
15698;DHT22;7949;48.726;9.102;2022-07-23T02:29:10;19.90;99.90
15698;DHT22;7949;48.726;9.102;2022-07-23T02:31:39;19.90;99.90
15698;DHT22;7949;48.726;9.102;2022-07-23T02:34:06;19.90;99.90
15698;DHT22;7949;48.726;9.102;2022-07-23T02:36:32;19.90;99.90
15698;DHT22;7949;48.726;9.102;2022-07-23T02:38:59;19.90;99.90
15698;DHT22;7949;48.726;9.102;2022-07-23T02:41:26;19.90;99.90
15698;DHT22;7949;48.726;9.102;2022-07-23T02:43:53;20.00;99.90
15698;DHT22;7949;48.726;9.102;2022-07-23T02:46:20;20.00;99.90
15698;DHT22;7949;48.726;9.102;2022-07-23T02:48:48;20.00;99.90
15698;DHT22;7949;48.726;9.102;2022-07-23T02:51:15;20.10;99.90
15698;DHT22;7949;48.726;9.102;2022-07-23T02:53:42;20.00;99.90
15698;DHT22;7949;48.726;9.102;2022-07-23T02:56:09;20.00;99.90
15698;DHT22;7949;48.726;9.102;2022-07-23T02:58:36;20.00;99.90
15698;DHT22;7949;48.726;9.102;2022-07-23T03:01:03;20.00;99.90
15698;DHT22;7949;48.726;9.102;2022-07-23T03:03:30;20.00;99.90
15698;DHT22;7949;48.726;9.102;2022-07-23T03:05:58;20.20;99.90
15698;DHT22;7949;48.726;9.102;2022-07-23T03:08:25;20.10;99.90
15698;DHT22;7949;48.726;9.102;2022-07-23T03:10:52;20.10;99.90
15698;DHT22;7949;48.726;9.102;2022-07-23T03:13:19;20.10;99.90
15698;DHT22;7949;48.726;9.102;2022-07-23T03:15:46;20.10;99.90
15698;DHT22;7949;48.726;9.102;2022-07-23T03:18:13;20.20;99.90
15698;DHT22;7949;48.726;9.102;2022-07-23T03:20:40;20.20;99.90
15698;DHT22;7949;48.726;9.102;2022-07-23T03:23:08;20.20;99.90
15698;DHT22;7949;48.726;9.102;2022-07-23T03:25:36;20.20;99.90
15698;DHT22;7949;48.726;9.102;2022-07-23T03:28:04;20.20;99.90
15698;DHT22;7949;48.726;9.102;2022-07-23T03:30:31;20.20;99.90
15698;DHT22;7949;48.726;9.102;2022-07-23T03:32:58;20.20;99.90
15698;DHT22;7949;48.726;9.102;2022-07-23T03:35:25;20.20;99.90
15698;DHT22;7949;48.726;9.102;2022-07-23T03:37:51;20.20;99.90
15698;DHT22;7949;48.726;9.102;2022-07-23T03:40:20;20.20;99.90
15698;DHT22;7949;48.726;9.102;2022-07-23T03:42:46;20.10;99.90
15698;DHT22;7949;48.726;9.102;2022-07-23T03:45:13;20.00;99.90
15698;DHT22;7949;48.726;9.102;2022-07-23T03:47:40;20.00;99.90
15698;DHT22;7949;48.726;9.102;2022-07-23T03:50:09;19.90;99.90
15698;DHT22;7949;48.726;9.102;2022-07-23T03:52:35;19.90;99.90
15698;DHT22;7949;48.726;9.102;2022-07-23T03:55:03;19.90;99.90
15698;DHT22;7949;48.726;9.102;2022-07-23T03:57:31;19.90;99.90
15698;DHT22;7949;48.726;9.102;2022-07-23T03:59:58;19.80;99.90
15698;DHT22;7949;48.726;9.102;2022-07-23T04:02:25;19.80;99.90
15698;DHT22;7949;48.726;9.102;2022-07-23T04:04:52;19.70;99.90
15698;DHT22;7949;48.726;9.102;2022-07-23T04:07:19;19.70;99.90
15698;DHT22;7949;48.726;9.102;2022-07-23T04:09:45;19.70;99.90
15698;DHT22;7949;48.726;9.102;2022-07-23T04:12:12;19.70;99.90
15698;DHT22;7949;48.726;9.102;2022-07-23T04:14:41;19.70;99.90
15698;DHT22;7949;48.726;9.102;2022-07-23T04:17:08;19.70;99.90
15698;DHT22;7949;48.726;9.102;2022-07-23T04:19:34;19.70;99.90
15698;DHT22;7949;48.726;9.102;2022-07-23T04:22:05;19.60;99.90
15698;DHT22;7949;48.726;9.102;2022-07-23T04:24:32;19.70;99.90
15698;DHT22;7949;48.726;9.102;2022-07-23T04:26:58;19.70;99.90
15698;DHT22;7949;48.726;9.102;2022-07-23T04:29:25;19.70;99.90
15698;DHT22;7949;48.726;9.102;2022-07-23T04:31:54;19.80;99.90
15698;DHT22;7949;48.726;9.102;2022-07-23T04:34:20;19.80;99.90
15698;DHT22;7949;48.726;9.102;2022-07-23T04:36:47;19.80;99.90
15698;DHT22;7949;48.726;9.102;2022-07-23T04:39:14;19.80;99.90
15698;DHT22;7949;48.726;9.102;2022-07-23T04:41:41;19.90;99.90
15698;DHT22;7949;48.726;9.102;2022-07-23T04:44:08;19.90;99.90
15698;DHT22;7949;48.726;9.102;2022-07-23T04:46:35;19.90;99.90
15698;DHT22;7949;48.726;9.102;2022-07-23T04:49:03;19.90;99.90
15698;DHT22;7949;48.726;9.102;2022-07-23T04:51:30;19.90;99.90
15698;DHT22;7949;48.726;9.102;2022-07-23T04:53:57;19.90;99.90
15698;DHT22;7949;48.726;9.102;2022-07-23T04:56:23;20.00;99.90
15698;DHT22;7949;48.726;9.102;2022-07-23T04:58:50;20.00;99.90
15698;DHT22;7949;48.726;9.102;2022-07-23T05:01:17;20.10;99.90
15698;DHT22;7949;48.726;9.102;2022-07-23T05:03:44;20.10;99.90
15698;DHT22;7949;48.726;9.102;2022-07-23T05:06:12;20.20;99.90
15698;DHT22;7949;48.726;9.102;2022-07-23T05:08:39;20.30;99.90
15698;DHT22;7949;48.726;9.102;2022-07-23T05:11:06;20.40;99.90
15698;DHT22;7949;48.726;9.102;2022-07-23T05:13:33;20.40;99.90
15698;DHT22;7949;48.726;9.102;2022-07-23T05:15:59;20.40;99.90
15698;DHT22;7949;48.726;9.102;2022-07-23T05:18:26;20.40;99.90
15698;DHT22;7949;48.726;9.102;2022-07-23T05:20:53;20.40;99.90
15698;DHT22;7949;48.726;9.102;2022-07-23T05:23:21;20.40;99.90
15698;DHT22;7949;48.726;9.102;2022-07-23T05:25:48;20.40;99.90
15698;DHT22;7949;48.726;9.102;2022-07-23T05:28:15;20.40;99.90
15698;DHT22;7949;48.726;9.102;2022-07-23T05:30:42;20.50;99.90
15698;DHT22;7949;48.726;9.102;2022-07-23T05:33:09;20.60;99.90
15698;DHT22;7949;48.726;9.102;2022-07-23T05:35:36;20.70;99.90
15698;DHT22;7949;48.726;9.102;2022-07-23T05:38:03;20.80;99.90
15698;DHT22;7949;48.726;9.102;2022-07-23T05:40:31;20.80;99.90
15698;DHT22;7949;48.726;9.102;2022-07-23T05:42:58;20.90;99.90
15698;DHT22;7949;48.726;9.102;2022-07-23T05:45:25;20.90;99.90
15698;DHT22;7949;48.726;9.102;2022-07-23T05:47:52;20.90;99.90
15698;DHT22;7949;48.726;9.102;2022-07-23T05:50:19;21.00;99.90
15698;DHT22;7949;48.726;9.102;2022-07-23T05:52:46;21.10;99.90
15698;DHT22;7949;48.726;9.102;2022-07-23T05:55:13;21.20;99.90
15698;DHT22;7949;48.726;9.102;2022-07-23T05:57:41;21.20;99.90
15698;DHT22;7949;48.726;9.102;2022-07-23T06:00:10;21.20;99.90
15698;DHT22;7949;48.726;9.102;2022-07-23T06:02:37;21.30;99.90
15698;DHT22;7949;48.726;9.102;2022-07-23T06:05:05;21.30;99.90
15698;DHT22;7949;48.726;9.102;2022-07-23T06:07:33;21.40;99.90
15698;DHT22;7949;48.726;9.102;2022-07-23T06:10:00;21.40;99.90
15698;DHT22;7949;48.726;9.102;2022-07-23T06:12:26;21.50;99.90
15698;DHT22;7949;48.726;9.102;2022-07-23T06:14:55;21.60;99.90
15698;DHT22;7949;48.726;9.102;2022-07-23T06:17:22;21.60;99.90
15698;DHT22;7949;48.726;9.102;2022-07-23T06:19:48;21.50;99.90
15698;DHT22;7949;48.726;9.102;2022-07-23T06:22:15;21.50;99.90
15698;DHT22;7949;48.726;9.102;2022-07-23T06:24:42;21.50;99.90
15698;DHT22;7949;48.726;9.102;2022-07-23T06:27:09;21.50;99.90
15698;DHT22;7949;48.726;9.102;2022-07-23T06:29:36;21.70;99.90
15698;DHT22;7949;48.726;9.102;2022-07-23T06:32:04;21.90;99.90
15698;DHT22;7949;48.726;9.102;2022-07-23T06:34:31;22.00;99.90
15698;DHT22;7949;48.726;9.102;2022-07-23T06:36:58;22.00;99.90
15698;DHT22;7949;48.726;9.102;2022-07-23T06:39:25;22.10;99.90
15698;DHT22;7949;48.726;9.102;2022-07-23T06:41:52;22.10;99.90
15698;DHT22;7949;48.726;9.102;2022-07-23T06:44:19;22.10;99.90
15698;DHT22;7949;48.726;9.102;2022-07-23T06:46:46;22.20;99.90
15698;DHT22;7949;48.726;9.102;2022-07-23T06:49:14;22.30;99.90
15698;DHT22;7949;48.726;9.102;2022-07-23T06:51:41;22.30;99.90
15698;DHT22;7949;48.726;9.102;2022-07-23T06:54:09;22.20;99.90
15698;DHT22;7949;48.726;9.102;2022-07-23T06:56:36;22.10;99.90
15698;DHT22;7949;48.726;9.102;2022-07-23T06:59:03;22.00;99.90
15698;DHT22;7949;48.726;9.102;2022-07-23T07:01:29;22.00;99.90
15698;DHT22;7949;48.726;9.102;2022-07-23T07:03:56;22.00;99.90
15698;DHT22;7949;48.726;9.102;2022-07-23T07:06:24;22.00;99.90
15698;DHT22;7949;48.726;9.102;2022-07-23T07:08:51;22.00;99.90
15698;DHT22;7949;48.726;9.102;2022-07-23T07:11:18;22.00;99.90
15698;DHT22;7949;48.726;9.102;2022-07-23T07:13:45;22.00;99.90
15698;DHT22;7949;48.726;9.102;2022-07-23T07:16:12;21.90;99.90
15698;DHT22;7949;48.726;9.102;2022-07-23T07:18:39;21.90;99.90
15698;DHT22;7949;48.726;9.102;2022-07-23T07:21:05;21.80;99.90
15698;DHT22;7949;48.726;9.102;2022-07-23T07:23:34;21.70;99.90
15698;DHT22;7949;48.726;9.102;2022-07-23T07:26:00;21.60;99.90
15698;DHT22;7949;48.726;9.102;2022-07-23T07:28:27;21.60;99.90
15698;DHT22;7949;48.726;9.102;2022-07-23T07:30:54;21.50;99.90
15698;DHT22;7949;48.726;9.102;2022-07-23T07:33:21;21.50;99.90
15698;DHT22;7949;48.726;9.102;2022-07-23T07:35:48;21.50;99.90
15698;DHT22;7949;48.726;9.102;2022-07-23T07:38:15;21.60;99.90
15698;DHT22;7949;48.726;9.102;2022-07-23T07:40:44;21.70;99.90
15698;DHT22;7949;48.726;9.102;2022-07-23T07:43:11;21.80;99.90
15698;DHT22;7949;48.726;9.102;2022-07-23T07:45:38;21.70;99.90
15698;DHT22;7949;48.726;9.102;2022-07-23T07:48:05;21.80;99.90
15698;DHT22;7949;48.726;9.102;2022-07-23T07:50:32;21.80;99.90
15698;DHT22;7949;48.726;9.102;2022-07-23T07:52:59;21.80;99.90
15698;DHT22;7949;48.726;9.102;2022-07-23T07:55:26;21.80;99.90
15698;DHT22;7949;48.726;9.102;2022-07-23T07:57:55;21.70;99.90
15698;DHT22;7949;48.726;9.102;2022-07-23T08:00:22;21.60;99.90
15698;DHT22;7949;48.726;9.102;2022-07-23T08:02:51;21.50;99.90
15698;DHT22;7949;48.726;9.102;2022-07-23T08:05:20;21.50;99.90
15698;DHT22;7949;48.726;9.102;2022-07-23T08:07:47;21.70;99.90
15698;DHT22;7949;48.726;9.102;2022-07-23T08:10:14;21.70;99.90
15698;DHT22;7949;48.726;9.102;2022-07-23T08:12:43;21.70;99.90
15698;DHT22;7949;48.726;9.102;2022-07-23T08:15:13;21.60;99.90
15698;DHT22;7949;48.726;9.102;2022-07-23T08:17:41;21.60;99.90
15698;DHT22;7949;48.726;9.102;2022-07-23T08:20:10;21.60;99.90
15698;DHT22;7949;48.726;9.102;2022-07-23T08:22:45;21.60;99.90
15698;DHT22;7949;48.726;9.102;2022-07-23T08:25:12;21.60;99.90
15698;DHT22;7949;48.726;9.102;2022-07-23T08:27:40;21.60;99.90
15698;DHT22;7949;48.726;9.102;2022-07-23T08:30:08;21.70;99.90
15698;DHT22;7949;48.726;9.102;2022-07-23T08:32:50;21.70;99.90
15698;DHT22;7949;48.726;9.102;2022-07-23T08:35:17;21.90;99.90
15698;DHT22;7949;48.726;9.102;2022-07-23T08:37:48;22.10;99.90
15698;DHT22;7949;48.726;9.102;2022-07-23T08:40:14;22.20;99.90
15698;DHT22;7949;48.726;9.102;2022-07-23T08:42:44;22.30;99.90
15698;DHT22;7949;48.726;9.102;2022-07-23T08:45:16;22.30;99.90
15698;DHT22;7949;48.726;9.102;2022-07-23T08:47:44;22.50;99.90
15698;DHT22;7949;48.726;9.102;2022-07-23T08:50:13;22.60;99.90
15698;DHT22;7949;48.726;9.102;2022-07-23T08:52:40;22.50;99.90
15698;DHT22;7949;48.726;9.102;2022-07-23T08:55:08;22.60;99.90
15698;DHT22;7949;48.726;9.102;2022-07-23T08:57:35;22.80;99.90
15698;DHT22;7949;48.726;9.102;2022-07-23T09:00:04;22.70;99.90
15698;DHT22;7949;48.726;9.102;2022-07-23T09:02:34;22.70;99.90
15698;DHT22;7949;48.726;9.102;2022-07-23T09:05:05;22.90;99.90
15698;DHT22;7949;48.726;9.102;2022-07-23T09:07:33;23.00;99.90
15698;DHT22;7949;48.726;9.102;2022-07-23T09:10:06;23.10;99.90
15698;DHT22;7949;48.726;9.102;2022-07-23T09:12:34;23.20;99.90
15698;DHT22;7949;48.726;9.102;2022-07-23T09:15:05;23.30;99.90
15698;DHT22;7949;48.726;9.102;2022-07-23T09:17:37;23.20;99.90
15698;DHT22;7949;48.726;9.102;2022-07-23T09:20:10;23.40;99.90
15698;DHT22;7949;48.726;9.102;2022-07-23T09:22:39;23.60;99.90
15698;DHT22;7949;48.726;9.102;2022-07-23T09:25:09;23.80;99.90
15698;DHT22;7949;48.726;9.102;2022-07-23T09:27:51;24.00;99.90
15698;DHT22;7949;48.726;9.102;2022-07-23T09:30:19;24.20;99.90
15698;DHT22;7949;48.726;9.102;2022-07-23T09:33:05;24.30;99.90
15698;DHT22;7949;48.726;9.102;2022-07-23T09:35:46;24.50;99.90
15698;DHT22;7949;48.726;9.102;2022-07-23T09:38:16;24.60;99.90
15698;DHT22;7949;48.726;9.102;2022-07-23T09:40:44;24.70;99.90
15698;DHT22;7949;48.726;9.102;2022-07-23T09:43:11;24.80;99.90
15698;DHT22;7949;48.726;9.102;2022-07-23T09:45:38;24.90;99.90
15698;DHT22;7949;48.726;9.102;2022-07-23T09:48:13;24.80;99.90
15698;DHT22;7949;48.726;9.102;2022-07-23T09:50:40;25.00;99.90
15698;DHT22;7949;48.726;9.102;2022-07-23T09:53:07;25.10;99.90
15698;DHT22;7949;48.726;9.102;2022-07-23T09:55:36;25.20;99.90
15698;DHT22;7949;48.726;9.102;2022-07-23T09:58:05;25.20;99.90
15698;DHT22;7949;48.726;9.102;2022-07-23T10:00:34;25.40;99.90
15698;DHT22;7949;48.726;9.102;2022-07-23T10:03:01;25.50;99.90
15698;DHT22;7949;48.726;9.102;2022-07-23T10:05:33;25.60;99.90
15698;DHT22;7949;48.726;9.102;2022-07-23T10:08:02;25.50;99.90
15698;DHT22;7949;48.726;9.102;2022-07-23T10:10:30;25.40;99.90
15698;DHT22;7949;48.726;9.102;2022-07-23T10:12:59;25.30;99.90
15698;DHT22;7949;48.726;9.102;2022-07-23T10:15:46;25.20;99.90
15698;DHT22;7949;48.726;9.102;2022-07-23T10:18:14;25.20;99.90
15698;DHT22;7949;48.726;9.102;2022-07-23T10:20:40;25.10;99.90
15698;DHT22;7949;48.726;9.102;2022-07-23T10:23:16;25.10;99.90
15698;DHT22;7949;48.726;9.102;2022-07-23T10:25:51;25.30;99.90
15698;DHT22;7949;48.726;9.102;2022-07-23T10:28:42;25.40;99.90
15698;DHT22;7949;48.726;9.102;2022-07-23T10:31:20;25.80;99.90
15698;DHT22;7949;48.726;9.102;2022-07-23T10:33:57;26.20;99.90
15698;DHT22;7949;48.726;9.102;2022-07-23T10:36:31;26.30;99.90
15698;DHT22;7949;48.726;9.102;2022-07-23T10:39:05;26.10;99.90
15698;DHT22;7949;48.726;9.102;2022-07-23T10:41:33;26.10;99.90
15698;DHT22;7949;48.726;9.102;2022-07-23T10:44:08;26.10;99.90
15698;DHT22;7949;48.726;9.102;2022-07-23T10:46:35;26.00;99.90
15698;DHT22;7949;48.726;9.102;2022-07-23T10:49:22;26.20;99.90
15698;DHT22;7949;48.726;9.102;2022-07-23T10:52:17;26.00;99.90
15698;DHT22;7949;48.726;9.102;2022-07-23T10:54:48;25.80;99.90
15698;DHT22;7949;48.726;9.102;2022-07-23T10:57:17;25.70;99.90
15698;DHT22;7949;48.726;9.102;2022-07-23T11:00:17;26.10;99.90
15698;DHT22;7949;48.726;9.102;2022-07-23T11:02:48;26.50;99.90
15698;DHT22;7949;48.726;9.102;2022-07-23T11:05:16;26.60;99.90
15698;DHT22;7949;48.726;9.102;2022-07-23T11:08:11;26.50;99.90
15698;DHT22;7949;48.726;9.102;2022-07-23T11:10:42;26.10;99.90
15698;DHT22;7949;48.726;9.102;2022-07-23T11:13:32;26.10;99.90
15698;DHT22;7949;48.726;9.102;2022-07-23T11:16:17;25.80;99.90
15698;DHT22;7949;48.726;9.102;2022-07-23T11:19:06;25.90;99.90
15698;DHT22;7949;48.726;9.102;2022-07-23T11:21:50;26.10;99.90
15698;DHT22;7949;48.726;9.102;2022-07-23T11:24:19;26.30;99.90
15698;DHT22;7949;48.726;9.102;2022-07-23T11:26:49;26.60;99.90
15698;DHT22;7949;48.726;9.102;2022-07-23T11:29:41;26.70;99.90
15698;DHT22;7949;48.726;9.102;2022-07-23T11:32:23;27.00;99.90
15698;DHT22;7949;48.726;9.102;2022-07-23T11:34:51;27.40;99.90
15698;DHT22;7949;48.726;9.102;2022-07-23T11:37:36;27.70;99.90
15698;DHT22;7949;48.726;9.102;2022-07-23T11:40:06;27.50;99.90
15698;DHT22;7949;48.726;9.102;2022-07-23T11:42:38;27.60;99.90
15698;DHT22;7949;48.726;9.102;2022-07-23T11:45:07;27.50;99.90
15698;DHT22;7949;48.726;9.102;2022-07-23T11:47:36;27.40;99.90
15698;DHT22;7949;48.726;9.102;2022-07-23T11:50:05;27.10;99.90
15698;DHT22;7949;48.726;9.102;2022-07-23T11:52:33;27.00;99.90
15698;DHT22;7949;48.726;9.102;2022-07-23T11:55:02;26.80;99.90
15698;DHT22;7949;48.726;9.102;2022-07-23T11:57:30;26.60;99.90
15698;DHT22;7949;48.726;9.102;2022-07-23T12:00:02;26.60;99.90
15698;DHT22;7949;48.726;9.102;2022-07-23T12:02:30;26.60;99.90
15698;DHT22;7949;48.726;9.102;2022-07-23T12:04:58;26.40;99.90
15698;DHT22;7949;48.726;9.102;2022-07-23T12:07:31;26.50;99.90
15698;DHT22;7949;48.726;9.102;2022-07-23T12:10:00;27.00;99.90
15698;DHT22;7949;48.726;9.102;2022-07-23T12:12:35;27.10;99.90
15698;DHT22;7949;48.726;9.102;2022-07-23T12:15:03;27.30;99.90
15698;DHT22;7949;48.726;9.102;2022-07-23T12:17:33;27.70;99.90
15698;DHT22;7949;48.726;9.102;2022-07-23T12:20:03;27.80;99.90
15698;DHT22;7949;48.726;9.102;2022-07-23T12:22:35;27.40;99.90
15698;DHT22;7949;48.726;9.102;2022-07-23T12:25:05;26.90;99.90
15698;DHT22;7949;48.726;9.102;2022-07-23T12:27:32;27.00;99.90
15698;DHT22;7949;48.726;9.102;2022-07-23T12:30:14;27.10;99.90
15698;DHT22;7949;48.726;9.102;2022-07-23T12:32:43;27.20;99.90
15698;DHT22;7949;48.726;9.102;2022-07-23T12:35:11;27.30;99.90
15698;DHT22;7949;48.726;9.102;2022-07-23T12:37:40;27.30;99.90
15698;DHT22;7949;48.726;9.102;2022-07-23T12:40:22;27.20;99.90
15698;DHT22;7949;48.726;9.102;2022-07-23T12:42:51;27.20;99.90
15698;DHT22;7949;48.726;9.102;2022-07-23T12:45:18;27.40;99.90
15698;DHT22;7949;48.726;9.102;2022-07-23T12:47:57;27.70;99.90
15698;DHT22;7949;48.726;9.102;2022-07-23T12:50:34;28.10;99.90
15698;DHT22;7949;48.726;9.102;2022-07-23T12:53:05;28.00;99.90
15698;DHT22;7949;48.726;9.102;2022-07-23T12:55:32;27.80;99.90
15698;DHT22;7949;48.726;9.102;2022-07-23T12:58:04;28.00;99.90
15698;DHT22;7949;48.726;9.102;2022-07-23T13:00:31;28.00;99.90
15698;DHT22;7949;48.726;9.102;2022-07-23T13:02:58;28.40;99.90
15698;DHT22;7949;48.726;9.102;2022-07-23T13:05:25;28.50;99.90
15698;DHT22;7949;48.726;9.102;2022-07-23T13:07:53;28.30;99.90
15698;DHT22;7949;48.726;9.102;2022-07-23T13:10:20;27.80;99.90
15698;DHT22;7949;48.726;9.102;2022-07-23T13:12:47;27.80;99.90
15698;DHT22;7949;48.726;9.102;2022-07-23T13:15:14;28.20;99.90
15698;DHT22;7949;48.726;9.102;2022-07-23T13:17:41;28.20;99.90
15698;DHT22;7949;48.726;9.102;2022-07-23T13:20:11;28.30;99.90
15698;DHT22;7949;48.726;9.102;2022-07-23T13:22:38;28.60;99.90
15698;DHT22;7949;48.726;9.102;2022-07-23T13:25:10;29.00;99.90
15698;DHT22;7949;48.726;9.102;2022-07-23T13:27:37;28.60;99.90
15698;DHT22;7949;48.726;9.102;2022-07-23T13:30:04;28.60;99.90
15698;DHT22;7949;48.726;9.102;2022-07-23T13:32:38;28.60;99.90
15698;DHT22;7949;48.726;9.102;2022-07-23T13:35:06;28.80;99.90
15698;DHT22;7949;48.726;9.102;2022-07-23T13:37:37;28.40;99.90
15698;DHT22;7949;48.726;9.102;2022-07-23T13:40:06;28.40;99.90
15698;DHT22;7949;48.726;9.102;2022-07-23T13:42:35;27.60;99.90
15698;DHT22;7949;48.726;9.102;2022-07-23T13:45:06;27.20;99.90
15698;DHT22;7949;48.726;9.102;2022-07-23T13:47:36;27.20;99.90
15698;DHT22;7949;48.726;9.102;2022-07-23T13:50:05;27.30;99.90
15698;DHT22;7949;48.726;9.102;2022-07-23T13:52:34;27.30;99.90
15698;DHT22;7949;48.726;9.102;2022-07-23T13:55:01;27.00;99.90
15698;DHT22;7949;48.726;9.102;2022-07-23T13:57:29;26.90;99.90
15698;DHT22;7949;48.726;9.102;2022-07-23T13:59:58;26.80;99.90
15698;DHT22;7949;48.726;9.102;2022-07-23T14:02:28;26.90;99.90
15698;DHT22;7949;48.726;9.102;2022-07-23T14:04:57;27.00;99.90
15698;DHT22;7949;48.726;9.102;2022-07-23T14:07:24;27.40;99.90
15698;DHT22;7949;48.726;9.102;2022-07-23T14:09:51;27.50;99.90
15698;DHT22;7949;48.726;9.102;2022-07-23T14:12:18;27.60;99.90
15698;DHT22;7949;48.726;9.102;2022-07-23T14:14:45;27.40;99.90
15698;DHT22;7949;48.726;9.102;2022-07-23T14:17:14;27.30;99.90
15698;DHT22;7949;48.726;9.102;2022-07-23T14:19:40;27.30;99.90
15698;DHT22;7949;48.726;9.102;2022-07-23T14:22:07;27.60;99.90
15698;DHT22;7949;48.726;9.102;2022-07-23T14:24:55;28.60;99.90
15698;DHT22;7949;48.726;9.102;2022-07-23T14:27:23;29.10;99.90
15698;DHT22;7949;48.726;9.102;2022-07-23T14:29:51;29.30;99.90
15698;DHT22;7949;48.726;9.102;2022-07-23T14:32:19;29.40;99.90
15698;DHT22;7949;48.726;9.102;2022-07-23T14:34:47;29.30;99.90
15698;DHT22;7949;48.726;9.102;2022-07-23T14:37:14;29.00;99.90
15698;DHT22;7949;48.726;9.102;2022-07-23T14:39:42;29.10;99.90
15698;DHT22;7949;48.726;9.102;2022-07-23T14:42:10;28.80;99.90
15698;DHT22;7949;48.726;9.102;2022-07-23T14:44:37;28.50;99.90
15698;DHT22;7949;48.726;9.102;2022-07-23T14:47:05;28.40;99.90
15698;DHT22;7949;48.726;9.102;2022-07-23T14:49:34;28.70;99.90
15698;DHT22;7949;48.726;9.102;2022-07-23T14:52:02;29.10;99.90
15698;DHT22;7949;48.726;9.102;2022-07-23T14:54:30;28.60;99.90
15698;DHT22;7949;48.726;9.102;2022-07-23T14:56:59;28.10;99.90
15698;DHT22;7949;48.726;9.102;2022-07-23T14:59:28;28.00;99.90
15698;DHT22;7949;48.726;9.102;2022-07-23T15:01:56;28.80;99.90
15698;DHT22;7949;48.726;9.102;2022-07-23T15:04:23;29.40;99.90
15698;DHT22;7949;48.726;9.102;2022-07-23T15:06:52;28.90;99.90
15698;DHT22;7949;48.726;9.102;2022-07-23T15:09:19;28.60;99.90
15698;DHT22;7949;48.726;9.102;2022-07-23T15:11:46;29.10;99.90
15698;DHT22;7949;48.726;9.102;2022-07-23T15:14:13;29.50;99.90
15698;DHT22;7949;48.726;9.102;2022-07-23T15:16:40;29.80;99.90
15698;DHT22;7949;48.726;9.102;2022-07-23T15:19:07;30.50;99.90
15698;DHT22;7949;48.726;9.102;2022-07-23T15:21:37;30.50;99.90
15698;DHT22;7949;48.726;9.102;2022-07-23T15:24:06;29.50;99.90
15698;DHT22;7949;48.726;9.102;2022-07-23T15:26:33;28.70;99.90
15698;DHT22;7949;48.726;9.102;2022-07-23T15:29:00;28.40;99.90
15698;DHT22;7949;48.726;9.102;2022-07-23T15:31:28;28.30;99.90
15698;DHT22;7949;48.726;9.102;2022-07-23T15:33:55;28.50;99.90
15698;DHT22;7949;48.726;9.102;2022-07-23T15:36:22;28.60;99.90
15698;DHT22;7949;48.726;9.102;2022-07-23T15:38:49;28.30;99.90
15698;DHT22;7949;48.726;9.102;2022-07-23T15:41:18;28.10;99.90
15698;DHT22;7949;48.726;9.102;2022-07-23T15:43:45;27.90;99.90
15698;DHT22;7949;48.726;9.102;2022-07-23T15:46:12;27.70;99.90
15698;DHT22;7949;48.726;9.102;2022-07-23T15:48:39;27.60;99.90
15698;DHT22;7949;48.726;9.102;2022-07-23T15:51:06;27.60;99.90
15698;DHT22;7949;48.726;9.102;2022-07-23T15:53:34;27.70;99.90
15698;DHT22;7949;48.726;9.102;2022-07-23T15:56:01;27.80;99.90